createdAt,value
2018-07-15T00:00:33.596Z,993.62
2018-07-15T00:01:33.591Z,993.69
2018-07-15T00:02:33.594Z,993.64
2018-07-15T00:03:54.590Z,993.58
2018-07-15T00:04:33.579Z,993.62
2018-07-15T00:05:33.576Z,993.56
2018-07-15T00:06:33.570Z,993.53
2018-07-15T00:07:33.564Z,993.52
2018-07-15T00:08:33.560Z,993.53
2018-07-15T00:09:54.563Z,993.56
2018-07-15T00:10:33.555Z,993.54
2018-07-15T00:11:33.545Z,993.49
2018-07-15T00:12:33.540Z,993.50
2018-07-15T00:13:33.538Z,993.51
2018-07-15T00:14:33.538Z,993.52
2018-07-15T00:15:54.535Z,993.52
2018-07-15T00:16:33.522Z,993.54
2018-07-15T00:17:33.522Z,993.52
2018-07-15T00:18:33.518Z,993.52
2018-07-15T00:19:33.560Z,993.49
2018-07-15T00:20:33.504Z,993.52
2018-07-15T00:21:54.509Z,993.54
2018-07-15T00:22:33.497Z,993.53
2018-07-15T00:23:33.496Z,993.52
2018-07-15T00:24:33.487Z,993.54
2018-07-15T00:25:33.482Z,993.59
2018-07-15T00:26:33.479Z,993.50
2018-07-15T00:27:54.479Z,993.49
2018-07-15T00:28:33.469Z,993.51
2018-07-15T00:29:33.464Z,993.44
2018-07-15T00:30:33.461Z,993.48
2018-07-15T00:31:33.459Z,993.47
2018-07-15T00:32:33.452Z,993.47
2018-07-15T00:33:54.453Z,993.43
2018-07-15T00:34:33.442Z,993.47
2018-07-15T00:35:33.436Z,993.39
2018-07-15T00:36:33.433Z,993.47
2018-07-15T00:37:33.430Z,993.47
2018-07-15T00:38:33.424Z,993.47
2018-07-15T00:39:54.426Z,993.45
2018-07-15T00:40:33.414Z,993.44
2018-07-15T00:41:33.411Z,993.43
2018-07-15T00:42:33.406Z,993.43
2018-07-15T00:43:33.400Z,993.38
2018-07-15T00:44:33.397Z,993.41
2018-07-15T00:45:54.399Z,993.42
2018-07-15T00:46:33.391Z,993.42
2018-07-15T00:47:33.388Z,993.38
2018-07-15T00:48:33.379Z,993.41
2018-07-15T00:49:33.375Z,993.40
2018-07-15T00:50:33.371Z,993.43
2018-07-15T00:51:54.373Z,993.44
2018-07-15T00:52:33.361Z,993.41
2018-07-15T00:53:33.355Z,993.42
2018-07-15T00:54:33.353Z,993.39
2018-07-15T00:55:33.348Z,993.39
2018-07-15T00:56:33.343Z,993.37
2018-07-15T00:57:54.346Z,993.40
2018-07-15T00:58:33.335Z,993.39
2018-07-15T00:59:33.329Z,993.38
2018-07-15T01:00:33.326Z,993.38
2018-07-15T01:01:33.322Z,993.34
2018-07-15T01:02:33.324Z,993.33
2018-07-15T01:03:54.318Z,993.35
2018-07-15T01:04:33.308Z,993.36
2018-07-15T01:05:33.303Z,993.31
2018-07-15T01:06:33.299Z,993.31
2018-07-15T01:07:33.292Z,993.32
2018-07-15T01:08:33.292Z,993.32
2018-07-15T01:09:54.294Z,993.27
2018-07-15T01:10:33.282Z,993.28
2018-07-15T01:11:33.275Z,993.27
2018-07-15T01:12:33.271Z,993.26
2018-07-15T01:13:33.270Z,993.25
2018-07-15T01:14:33.262Z,993.23
2018-07-15T01:15:54.264Z,993.20
2018-07-15T01:16:33.254Z,993.22
2018-07-15T01:17:33.250Z,993.20
2018-07-15T01:18:33.247Z,993.19
2018-07-15T01:19:33.245Z,993.21
2018-07-15T01:20:33.238Z,993.22
2018-07-15T01:21:54.241Z,993.21
2018-07-15T01:22:33.226Z,993.22
2018-07-15T01:23:33.231Z,993.26
2018-07-15T01:24:33.226Z,993.26
2018-07-15T01:25:33.214Z,993.25
2018-07-15T01:26:33.210Z,993.24
2018-07-15T01:27:54.211Z,993.25
2018-07-15T01:28:33.201Z,993.25
2018-07-15T01:29:33.196Z,993.26
2018-07-15T01:30:33.193Z,993.24
2018-07-15T01:31:33.187Z,993.23
2018-07-15T01:32:33.184Z,993.23
2018-07-15T01:33:54.187Z,993.25
2018-07-15T01:34:33.176Z,993.20
2018-07-15T01:35:33.172Z,993.18
2018-07-15T01:36:33.166Z,993.21
2018-07-15T01:37:33.162Z,993.19
2018-07-15T01:38:33.157Z,993.20
2018-07-15T01:39:54.194Z,993.24
2018-07-15T01:40:33.147Z,993.20
2018-07-15T01:41:33.148Z,993.24
2018-07-15T01:42:33.165Z,993.24
2018-07-15T01:43:33.134Z,993.27
2018-07-15T01:44:33.129Z,993.26
2018-07-15T01:45:54.168Z,993.24
2018-07-15T01:46:33.124Z,993.23
2018-07-15T01:47:33.115Z,993.23
2018-07-15T01:48:33.111Z,993.26
2018-07-15T01:49:33.110Z,993.19
2018-07-15T01:50:33.104Z,993.21
2018-07-15T01:51:54.106Z,993.20
2018-07-15T01:52:33.094Z,993.22
2018-07-15T01:53:33.089Z,993.20
2018-07-15T01:54:33.090Z,993.19
2018-07-15T01:55:33.084Z,993.18
2018-07-15T01:56:33.076Z,993.17
2018-07-15T01:57:54.080Z,993.17
2018-07-15T01:58:33.068Z,993.18
2018-07-15T01:59:33.063Z,993.16
2018-07-15T02:00:33.056Z,993.14
2018-07-15T02:01:33.056Z,993.18
2018-07-15T02:02:33.050Z,993.17
2018-07-15T02:03:54.055Z,993.12
2018-07-15T02:04:33.041Z,993.17
2018-07-15T02:05:33.036Z,993.12
2018-07-15T02:06:33.034Z,993.11
2018-07-15T02:07:33.026Z,993.14
2018-07-15T02:08:33.024Z,993.09
2018-07-15T02:09:54.026Z,993.09
2018-07-15T02:10:33.015Z,993.10
2018-07-15T02:11:33.008Z,993.12
2018-07-15T02:12:33.006Z,993.08
2018-07-15T02:13:33.002Z,993.10
2018-07-15T02:14:33.000Z,993.06
2018-07-15T02:15:53.997Z,993.05
2018-07-15T02:16:32.987Z,993.08
2018-07-15T02:17:32.983Z,993.06
2018-07-15T02:18:32.979Z,993.06
2018-07-15T02:19:32.975Z,993.04
2018-07-15T02:20:32.968Z,993.11
2018-07-15T02:21:53.971Z,993.05
2018-07-15T02:22:32.960Z,993.10
2018-07-15T02:23:32.958Z,993.04
2018-07-15T02:24:32.951Z,993.04
2018-07-15T02:25:32.945Z,993.04
2018-07-15T02:26:32.943Z,993.02
2018-07-15T02:27:53.945Z,993.04
2018-07-15T02:28:32.932Z,993.08
2018-07-15T02:29:32.927Z,993.05
2018-07-15T02:30:32.926Z,993.09
2018-07-15T02:31:32.918Z,993.10
2018-07-15T02:32:32.917Z,993.08
2018-07-15T02:33:53.919Z,993.11
2018-07-15T02:34:32.909Z,993.10
2018-07-15T02:35:32.901Z,993.09
2018-07-15T02:36:32.920Z,993.13
2018-07-15T02:37:32.892Z,993.13
2018-07-15T02:38:32.889Z,993.12
2018-07-15T02:39:53.890Z,993.09
2018-07-15T02:40:32.879Z,993.14
2018-07-15T02:41:32.875Z,993.14
2018-07-15T02:42:32.870Z,993.13
2018-07-15T02:43:32.863Z,993.19
2018-07-15T02:44:32.861Z,993.20
2018-07-15T02:45:53.865Z,993.18
2018-07-15T02:46:32.853Z,993.11
2018-07-15T02:47:32.847Z,993.14
2018-07-15T02:48:32.843Z,993.15
2018-07-15T02:49:32.840Z,993.11
2018-07-15T02:50:32.834Z,993.17
2018-07-15T02:51:53.835Z,993.14
2018-07-15T02:52:32.825Z,993.17
2018-07-15T02:53:32.820Z,993.15
2018-07-15T02:54:32.820Z,993.13
2018-07-15T02:55:32.812Z,993.15
2018-07-15T02:56:32.806Z,993.17
2018-07-15T02:57:53.815Z,993.12
2018-07-15T02:58:32.800Z,993.12
2018-07-15T02:59:32.794Z,993.16
2018-07-15T03:00:32.789Z,993.17
2018-07-15T03:01:32.786Z,993.18
2018-07-15T03:02:32.782Z,993.11
2018-07-15T03:03:53.782Z,993.14
2018-07-15T03:04:32.770Z,993.18
2018-07-15T03:05:32.767Z,993.13
2018-07-15T03:06:32.767Z,993.19
2018-07-15T03:07:32.756Z,993.14
2018-07-15T03:08:32.751Z,993.11
2018-07-15T03:09:53.755Z,993.14
2018-07-15T03:10:32.743Z,993.14
2018-07-15T03:11:32.740Z,993.12
2018-07-15T03:12:32.734Z,993.16
2018-07-15T03:13:32.768Z,993.12
2018-07-15T03:14:32.726Z,993.14
2018-07-15T03:15:53.729Z,993.11
2018-07-15T03:16:32.718Z,993.10
2018-07-15T03:17:32.714Z,993.08
2018-07-15T03:18:32.707Z,993.13
2018-07-15T03:19:32.707Z,993.14
2018-07-15T03:20:32.699Z,993.09
2018-07-15T03:21:53.700Z,993.12
2018-07-15T03:22:32.691Z,993.14
2018-07-15T03:23:32.684Z,993.12
2018-07-15T03:24:32.680Z,993.12
2018-07-15T03:25:32.676Z,993.11
2018-07-15T03:26:32.671Z,993.16
2018-07-15T03:27:53.672Z,993.14
2018-07-15T03:28:32.661Z,993.15
2018-07-15T03:29:32.658Z,993.12
2018-07-15T03:30:32.655Z,993.08
2018-07-15T03:31:32.646Z,993.13
2018-07-15T03:32:32.644Z,993.16
2018-07-15T03:33:53.647Z,993.14
2018-07-15T03:34:32.635Z,993.10
2018-07-15T03:35:32.631Z,993.10
2018-07-15T03:36:32.626Z,993.10
2018-07-15T03:37:32.621Z,993.07
2018-07-15T03:38:32.621Z,993.09
2018-07-15T03:39:53.695Z,993.05
2018-07-15T03:40:32.642Z,993.05
2018-07-15T03:41:32.603Z,993.04
2018-07-15T03:42:32.599Z,993.04
2018-07-15T03:43:32.596Z,993.01
2018-07-15T03:44:32.589Z,993.00
2018-07-15T03:45:53.596Z,993.01
2018-07-15T03:46:32.581Z,992.96
2018-07-15T03:47:32.576Z,992.98
2018-07-15T03:48:32.571Z,992.99
2018-07-15T03:49:32.568Z,992.99
2018-07-15T03:50:32.563Z,992.95
2018-07-15T03:51:53.563Z,992.95
2018-07-15T03:52:32.552Z,992.98
2018-07-15T03:53:32.550Z,992.96
2018-07-15T03:54:32.546Z,992.95
2018-07-15T03:55:32.541Z,992.95
2018-07-15T03:56:32.534Z,992.97
2018-07-15T03:57:53.538Z,992.95
2018-07-15T03:58:32.526Z,992.94
2018-07-15T03:59:32.520Z,992.90
2018-07-15T04:00:32.520Z,992.93
2018-07-15T04:01:32.512Z,992.96
2018-07-15T04:02:32.508Z,992.98
2018-07-15T04:03:53.507Z,992.98
2018-07-15T04:04:32.497Z,992.92
2018-07-15T04:05:32.493Z,992.92
2018-07-15T04:06:32.489Z,992.93
2018-07-15T04:07:32.484Z,992.93
2018-07-15T04:08:32.489Z,992.95
2018-07-15T04:09:53.485Z,992.92
2018-07-15T04:10:32.471Z,992.93
2018-07-15T04:11:32.467Z,992.93
2018-07-15T04:12:32.465Z,992.91
2018-07-15T04:13:32.457Z,992.92
2018-07-15T04:14:32.450Z,992.89
2018-07-15T04:15:53.453Z,992.91
2018-07-15T04:16:32.444Z,992.95
2018-07-15T04:17:32.438Z,992.92
2018-07-15T04:18:32.435Z,992.90
2018-07-15T04:19:32.429Z,992.90
2018-07-15T04:20:32.429Z,992.87
2018-07-15T04:21:53.431Z,992.93
2018-07-15T04:22:32.415Z,992.92
2018-07-15T04:23:32.409Z,992.89
2018-07-15T04:24:32.407Z,992.93
2018-07-15T04:25:32.405Z,992.89
2018-07-15T04:26:32.397Z,992.94
2018-07-15T04:27:53.399Z,992.91
2018-07-15T04:28:32.391Z,992.91
2018-07-15T04:29:32.383Z,992.93
2018-07-15T04:30:32.378Z,992.92
2018-07-15T04:31:32.370Z,992.91
2018-07-15T04:32:32.369Z,992.91
2018-07-15T04:33:53.373Z,992.91
2018-07-15T04:34:32.361Z,992.89
2018-07-15T04:35:32.356Z,992.84
2018-07-15T04:36:32.351Z,992.87
2018-07-15T04:37:32.347Z,992.91
2018-07-15T04:38:32.345Z,992.88
2018-07-15T04:39:53.343Z,992.86
2018-07-15T04:40:32.333Z,992.86
2018-07-15T04:41:32.328Z,992.83
2018-07-15T04:42:32.324Z,992.86
2018-07-15T04:43:32.321Z,992.86
2018-07-15T04:44:32.314Z,992.87
2018-07-15T04:45:53.319Z,992.90
2018-07-15T04:46:32.309Z,992.86
2018-07-15T04:47:32.301Z,992.86
2018-07-15T04:48:32.297Z,992.94
2018-07-15T04:49:32.294Z,992.91
2018-07-15T04:50:32.285Z,992.93
2018-07-15T04:51:53.287Z,992.92
2018-07-15T04:52:32.280Z,992.90
2018-07-15T04:53:32.272Z,992.96
2018-07-15T04:54:32.269Z,992.96
2018-07-15T04:55:32.269Z,992.95
2018-07-15T04:56:32.262Z,992.94
2018-07-15T04:57:53.262Z,992.93
2018-07-15T04:58:32.250Z,992.93
2018-07-15T04:59:32.245Z,992.88
2018-07-15T05:00:32.241Z,992.95
2018-07-15T05:01:32.238Z,992.90
2018-07-15T05:02:32.237Z,992.90
2018-07-15T05:03:53.232Z,992.95
2018-07-15T05:04:32.222Z,992.91
2018-07-15T05:05:32.219Z,992.93
2018-07-15T05:06:32.214Z,992.90
2018-07-15T05:07:32.208Z,992.92
2018-07-15T05:08:32.203Z,992.89
2018-07-15T05:09:53.205Z,992.90
2018-07-15T05:10:32.195Z,992.92
2018-07-15T05:11:32.194Z,992.90
2018-07-15T05:12:32.207Z,992.91
2018-07-15T05:13:32.181Z,992.92
2018-07-15T05:14:32.180Z,992.87
2018-07-15T05:15:53.177Z,992.89
2018-07-15T05:16:32.168Z,992.90
2018-07-15T05:17:32.163Z,992.93
2018-07-15T05:18:32.217Z,992.91
2018-07-15T05:19:32.152Z,992.94
2018-07-15T05:20:32.149Z,992.92
2018-07-15T05:21:53.159Z,992.97
2018-07-15T05:22:32.142Z,993.00
2018-07-15T05:23:32.137Z,993.00
2018-07-15T05:24:32.131Z,993.03
2018-07-15T05:25:32.125Z,993.04
2018-07-15T05:26:32.122Z,993.00
2018-07-15T05:27:53.123Z,993.00
2018-07-15T05:28:32.113Z,993.01
2018-07-15T05:29:32.108Z,992.99
2018-07-15T05:30:32.108Z,993.00
2018-07-15T05:31:32.098Z,993.02
2018-07-15T05:32:32.094Z,993.01
2018-07-15T05:33:53.097Z,993.01
2018-07-15T05:34:32.084Z,993.03
2018-07-15T05:35:32.080Z,993.02
2018-07-15T05:36:32.075Z,993.07
2018-07-15T05:37:32.105Z,993.05
2018-07-15T05:38:32.086Z,993.11
2018-07-15T05:39:53.068Z,993.08
2018-07-15T05:40:32.062Z,993.10
2018-07-15T05:41:32.054Z,993.12
2018-07-15T05:42:32.051Z,993.09
2018-07-15T05:43:32.044Z,993.13
2018-07-15T05:44:32.041Z,993.13
2018-07-15T05:45:53.061Z,993.11
2018-07-15T05:46:32.031Z,993.15
2018-07-15T05:47:32.027Z,993.16
2018-07-15T05:48:32.021Z,993.16
2018-07-15T05:49:32.015Z,993.13
2018-07-15T05:50:32.013Z,993.15
2018-07-15T05:51:53.057Z,993.15
2018-07-15T05:52:32.002Z,993.15
2018-07-15T05:53:31.998Z,993.17
2018-07-15T05:54:31.998Z,993.14
2018-07-15T05:55:31.989Z,993.22
2018-07-15T05:56:31.985Z,993.19
2018-07-15T05:57:53.050Z,993.19
2018-07-15T05:58:31.974Z,993.21
2018-07-15T05:59:31.971Z,993.21
2018-07-15T06:00:31.966Z,993.21
2018-07-15T06:01:31.963Z,993.21
2018-07-15T06:02:31.957Z,993.27
2018-07-15T06:03:52.960Z,993.27
2018-07-15T06:04:31.946Z,993.23
2018-07-15T06:05:31.944Z,993.28
2018-07-15T06:06:31.942Z,993.27
2018-07-15T06:07:31.936Z,993.30
2018-07-15T06:08:31.929Z,993.23
2018-07-15T06:09:52.932Z,993.25
2018-07-15T06:10:31.924Z,993.32
2018-07-15T06:11:31.916Z,993.31
2018-07-15T06:12:31.913Z,993.36
2018-07-15T06:13:31.905Z,993.32
2018-07-15T06:14:31.902Z,993.32
2018-07-15T06:15:52.906Z,993.37
2018-07-15T06:16:31.894Z,993.39
2018-07-15T06:17:31.890Z,993.36
2018-07-15T06:18:31.884Z,993.40
2018-07-15T06:19:31.882Z,993.41
2018-07-15T06:20:31.875Z,993.41
2018-07-15T06:21:52.880Z,993.41
2018-07-15T06:22:31.866Z,993.43
2018-07-15T06:23:31.861Z,993.40
2018-07-15T06:24:31.860Z,993.40
2018-07-15T06:25:31.856Z,993.43
2018-07-15T06:26:31.851Z,993.42
2018-07-15T06:27:52.853Z,993.42
2018-07-15T06:28:31.840Z,993.41
2018-07-15T06:29:31.836Z,993.39
2018-07-15T06:30:31.836Z,993.37
2018-07-15T06:31:31.826Z,993.36
2018-07-15T06:32:31.825Z,993.41
2018-07-15T06:33:52.825Z,993.46
2018-07-15T06:34:31.815Z,993.41
2018-07-15T06:35:31.807Z,993.45
2018-07-15T06:36:31.804Z,993.45
2018-07-15T06:37:31.798Z,993.48
2018-07-15T06:38:31.795Z,993.45
2018-07-15T06:39:52.799Z,993.45
2018-07-15T06:40:31.791Z,993.44
2018-07-15T06:41:31.781Z,993.46
2018-07-15T06:42:31.777Z,993.49
2018-07-15T06:43:31.772Z,993.45
2018-07-15T06:44:31.770Z,993.45
2018-07-15T06:45:52.771Z,993.48
2018-07-15T06:46:31.763Z,993.46
2018-07-15T06:47:31.755Z,993.42
2018-07-15T06:48:31.750Z,993.43
2018-07-15T06:49:31.749Z,993.43
2018-07-15T06:50:31.743Z,993.45
2018-07-15T06:51:52.742Z,993.43
2018-07-15T06:52:31.733Z,993.44
2018-07-15T06:53:31.727Z,993.39
2018-07-15T06:54:31.727Z,993.40
2018-07-15T06:55:31.725Z,993.35
2018-07-15T06:56:31.715Z,993.37
2018-07-15T06:57:52.719Z,993.34
2018-07-15T06:58:31.707Z,993.31
2018-07-15T06:59:31.702Z,993.33
2018-07-15T07:00:31.697Z,993.32
2018-07-15T07:01:31.735Z,993.32
2018-07-15T07:02:31.688Z,993.31
2018-07-15T07:03:52.689Z,993.30
2018-07-15T07:04:31.678Z,993.27
2018-07-15T07:05:31.672Z,993.29
2018-07-15T07:06:31.669Z,993.26
2018-07-15T07:07:31.714Z,993.21
2018-07-15T07:08:31.658Z,993.19
2018-07-15T07:09:52.660Z,993.16
2018-07-15T07:10:31.648Z,993.18
2018-07-15T07:11:31.643Z,993.14
2018-07-15T07:12:31.637Z,993.17
2018-07-15T07:13:31.633Z,993.20
2018-07-15T07:14:31.629Z,993.22
2018-07-15T07:15:52.632Z,993.17
2018-07-15T07:16:31.621Z,993.17
2018-07-15T07:17:31.614Z,993.21
2018-07-15T07:18:31.607Z,993.19
2018-07-15T07:19:31.600Z,993.19
2018-07-15T07:20:31.621Z,993.18
2018-07-15T07:21:52.605Z,993.18
2018-07-15T07:22:31.588Z,993.24
2018-07-15T07:23:31.580Z,993.22
2018-07-15T07:24:31.580Z,993.16
2018-07-15T07:25:31.570Z,993.19
2018-07-15T07:26:31.571Z,993.17
2018-07-15T07:27:52.567Z,993.12
2018-07-15T07:28:31.554Z,993.09
2018-07-15T07:29:31.550Z,993.08
2018-07-15T07:30:31.544Z,993.07
2018-07-15T07:31:31.539Z,993.03
2018-07-15T07:32:31.531Z,993.02
2018-07-15T07:33:52.536Z,993.04
2018-07-15T07:34:31.523Z,993.04
2018-07-15T07:35:31.631Z,993.01
2018-07-15T07:36:31.513Z,993.02
2018-07-15T07:37:31.507Z,993.01
2018-07-15T07:38:31.520Z,993.02
2018-07-15T07:39:52.502Z,993.00
2018-07-15T07:40:31.492Z,992.99
2018-07-15T07:41:31.487Z,993.00
2018-07-15T07:42:31.486Z,993.00
2018-07-15T07:43:31.473Z,993.00
2018-07-15T07:44:31.469Z,993.01
2018-07-15T07:45:52.471Z,993.01
2018-07-15T07:46:31.458Z,992.97
2018-07-15T07:47:31.454Z,993.00
2018-07-15T07:48:31.448Z,992.99
2018-07-15T07:49:31.443Z,993.03
2018-07-15T07:50:31.439Z,992.99
2018-07-15T07:51:52.438Z,993.02
2018-07-15T07:52:31.427Z,993.01
2018-07-15T07:53:31.422Z,992.97
2018-07-15T07:54:31.415Z,992.96
2018-07-15T07:55:31.416Z,992.95
2018-07-15T07:56:31.406Z,993.02
2018-07-15T07:57:52.410Z,992.99
2018-07-15T07:58:31.399Z,993.03
2018-07-15T07:59:31.395Z,993.05
2018-07-15T08:00:31.387Z,992.99
2018-07-15T08:01:31.380Z,993.02
2018-07-15T08:02:31.376Z,993.01
2018-07-15T08:03:52.377Z,993.02
2018-07-15T08:04:31.364Z,993.01
2018-07-15T08:05:31.360Z,993.00
2018-07-15T08:06:31.369Z,992.99
2018-07-15T08:07:31.379Z,992.98
2018-07-15T08:08:31.344Z,993.03
2018-07-15T08:09:52.349Z,993.01
2018-07-15T08:10:31.334Z,993.03
2018-07-15T08:11:31.329Z,992.99
2018-07-15T08:12:31.323Z,992.93
2018-07-15T08:13:31.321Z,992.92
2018-07-15T08:14:31.312Z,992.96
2018-07-15T08:15:52.313Z,992.92
2018-07-15T08:16:31.301Z,992.92
2018-07-15T08:17:31.297Z,992.91
2018-07-15T08:18:31.293Z,992.96
2018-07-15T08:19:31.288Z,992.93
2018-07-15T08:20:31.281Z,992.95
2018-07-15T08:21:52.283Z,992.94
2018-07-15T08:22:31.274Z,992.94
2018-07-15T08:23:31.266Z,992.93
2018-07-15T08:24:31.262Z,992.91
2018-07-15T08:25:31.257Z,992.91
2018-07-15T08:26:31.252Z,992.86
2018-07-15T08:27:52.252Z,992.91
2018-07-15T08:28:31.397Z,992.85
2018-07-15T08:29:31.236Z,992.92
2018-07-15T08:30:31.231Z,992.84
2018-07-15T08:31:31.229Z,992.91
2018-07-15T08:32:31.222Z,992.89
2018-07-15T08:33:52.224Z,992.87
2018-07-15T08:34:31.212Z,992.91
2018-07-15T08:35:31.209Z,992.89
2018-07-15T08:36:31.207Z,992.93
2018-07-15T08:37:31.203Z,992.92
2018-07-15T08:38:31.197Z,992.89
2018-07-15T08:39:52.197Z,992.96
2018-07-15T08:40:31.226Z,992.95
2018-07-15T08:41:31.179Z,992.96
2018-07-15T08:42:31.175Z,992.98
2018-07-15T08:43:31.344Z,993.01
2018-07-15T08:44:31.164Z,993.00
2018-07-15T08:45:52.192Z,992.99
2018-07-15T08:46:31.156Z,992.98
2018-07-15T08:47:31.150Z,992.95
2018-07-15T08:48:31.146Z,992.98
2018-07-15T08:49:31.140Z,992.93
2018-07-15T08:50:31.135Z,992.96
2018-07-15T08:51:52.137Z,992.92
2018-07-15T08:52:31.126Z,992.94
2018-07-15T08:53:31.121Z,992.95
2018-07-15T08:54:31.118Z,992.94
2018-07-15T08:55:31.109Z,992.91
2018-07-15T08:56:31.108Z,992.91
2018-07-15T08:57:52.109Z,992.96
2018-07-15T08:58:31.098Z,992.97
2018-07-15T08:59:31.096Z,992.97
2018-07-15T09:00:31.089Z,992.94
2018-07-15T09:01:31.083Z,992.98
2018-07-15T09:02:31.081Z,992.95
2018-07-15T09:03:52.113Z,993.01
2018-07-15T09:04:31.069Z,992.98
2018-07-15T09:05:31.070Z,992.96
2018-07-15T09:06:31.060Z,992.99
2018-07-15T09:07:31.054Z,992.96
2018-07-15T09:08:31.054Z,992.99
2018-07-15T09:09:52.053Z,992.98
2018-07-15T09:10:31.043Z,993.00
2018-07-15T09:11:31.036Z,993.00
2018-07-15T09:12:31.035Z,992.98
2018-07-15T09:13:31.027Z,992.94
2018-07-15T09:14:31.021Z,992.92
2018-07-15T09:15:52.024Z,992.94
2018-07-15T09:16:31.014Z,992.91
2018-07-15T09:17:31.009Z,992.89
2018-07-15T09:18:31.007Z,992.91
2018-07-15T09:19:30.996Z,992.93
2018-07-15T09:20:30.995Z,992.93
2018-07-15T09:21:52.017Z,992.90
2018-07-15T09:22:30.986Z,992.94
2018-07-15T09:23:30.978Z,992.89
2018-07-15T09:24:31.167Z,992.92
2018-07-15T09:25:31.100Z,992.86
2018-07-15T09:26:30.965Z,992.88
2018-07-15T09:27:52.025Z,992.85
2018-07-15T09:28:30.956Z,992.86
2018-07-15T09:29:30.950Z,992.88
2018-07-15T09:30:30.951Z,992.86
2018-07-15T09:31:30.945Z,992.86
2018-07-15T09:32:30.937Z,992.88
2018-07-15T09:33:51.940Z,992.89
2018-07-15T09:34:30.928Z,992.84
2018-07-15T09:35:30.945Z,992.92
2018-07-15T09:36:30.919Z,992.91
2018-07-15T09:37:30.915Z,992.86
2018-07-15T09:38:30.915Z,992.89
2018-07-15T09:39:51.913Z,992.86
2018-07-15T09:40:30.902Z,992.83
2018-07-15T09:41:30.898Z,992.89
2018-07-15T09:42:30.893Z,992.91
2018-07-15T09:43:30.890Z,992.88
2018-07-15T09:44:30.888Z,992.85
2018-07-15T09:45:51.889Z,992.84
2018-07-15T09:46:30.878Z,992.88
2018-07-15T09:47:30.870Z,992.82
2018-07-15T09:48:30.866Z,992.83
2018-07-15T09:49:30.866Z,992.83
2018-07-15T09:50:30.857Z,992.87
2018-07-15T09:51:51.860Z,992.87
2018-07-15T09:52:30.847Z,992.79
2018-07-15T09:53:30.849Z,992.83
2018-07-15T09:54:30.840Z,992.84
2018-07-15T09:55:30.836Z,992.83
2018-07-15T09:56:30.832Z,992.81
2018-07-15T09:57:51.833Z,992.78
2018-07-15T09:58:30.825Z,992.79
2018-07-15T09:59:30.818Z,992.71
2018-07-15T10:00:30.816Z,992.68
2018-07-15T10:01:30.811Z,992.70
2018-07-15T10:02:30.814Z,992.75
2018-07-15T10:03:51.813Z,992.73
2018-07-15T10:04:30.857Z,992.75
2018-07-15T10:05:30.794Z,992.78
2018-07-15T10:06:30.790Z,992.76
2018-07-15T10:07:30.799Z,992.72
2018-07-15T10:08:30.783Z,992.74
2018-07-15T10:09:51.785Z,992.76
2018-07-15T10:10:30.848Z,992.81
2018-07-15T10:11:30.771Z,992.81
2018-07-15T10:12:30.764Z,992.77
2018-07-15T10:13:30.760Z,992.70
2018-07-15T10:14:30.756Z,992.74
2018-07-15T10:15:51.757Z,992.68
2018-07-15T10:16:30.748Z,992.66
2018-07-15T10:17:30.743Z,992.70
2018-07-15T10:18:30.740Z,992.70
2018-07-15T10:19:30.739Z,992.66
2018-07-15T10:20:30.732Z,992.66
2018-07-15T10:21:51.735Z,992.62
2018-07-15T10:22:30.722Z,992.58
2018-07-15T10:23:30.718Z,992.59
2018-07-15T10:24:30.714Z,992.58
2018-07-15T10:25:30.711Z,992.60
2018-07-15T10:26:30.759Z,992.59
2018-07-15T10:27:51.709Z,992.56
2018-07-15T10:28:30.705Z,992.53
2018-07-15T10:29:30.697Z,992.54
2018-07-15T10:30:30.689Z,992.49
2018-07-15T10:31:30.685Z,992.54
2018-07-15T10:32:30.681Z,992.48
2018-07-15T10:33:51.686Z,992.51
2018-07-15T10:34:30.683Z,992.52
2018-07-15T10:35:30.668Z,992.47
2018-07-15T10:36:30.662Z,992.52
2018-07-15T10:37:30.660Z,992.48
2018-07-15T10:38:30.947Z,992.45
2018-07-15T10:39:51.658Z,992.50
2018-07-15T10:40:30.686Z,992.48
2018-07-15T10:41:30.644Z,992.44
2018-07-15T10:42:30.639Z,992.43
2018-07-15T10:43:30.635Z,992.39
2018-07-15T10:44:30.643Z,992.35
2018-07-15T10:45:51.636Z,992.36
2018-07-15T10:46:30.625Z,992.33
2018-07-15T10:47:30.620Z,992.32
2018-07-15T10:48:30.618Z,992.31
2018-07-15T10:49:30.611Z,992.28
2018-07-15T10:50:30.610Z,992.26
2018-07-15T10:51:51.609Z,992.28
2018-07-15T10:52:30.600Z,992.22
2018-07-15T10:53:30.595Z,992.20
2018-07-15T10:54:30.591Z,992.21
2018-07-15T10:55:30.587Z,992.18
2018-07-15T10:56:30.583Z,992.19
2018-07-15T10:57:51.585Z,992.14
2018-07-15T10:58:30.575Z,992.12
2018-07-15T10:59:30.573Z,992.10
2018-07-15T11:00:30.566Z,992.08
2018-07-15T11:01:30.562Z,992.05
2018-07-15T11:02:30.559Z,992.04
2018-07-15T11:03:51.561Z,992.03
2018-07-15T11:04:30.574Z,992.08
2018-07-15T11:05:30.550Z,992.07
2018-07-15T11:06:30.620Z,992.03
2018-07-15T11:07:30.538Z,992.06
2018-07-15T11:08:30.535Z,992.00
2018-07-15T11:09:51.539Z,992.00
2018-07-15T11:10:30.526Z,992.00
2018-07-15T11:11:30.520Z,991.98
2018-07-15T11:12:30.519Z,991.96
2018-07-15T11:13:30.520Z,991.98
2018-07-15T11:14:30.512Z,991.98
2018-07-15T11:15:51.512Z,991.93
2018-07-15T11:16:30.521Z,991.90
2018-07-15T11:17:30.499Z,991.90
2018-07-15T11:18:30.499Z,991.92
2018-07-15T11:19:30.490Z,991.91
2018-07-15T11:20:30.486Z,991.93
2018-07-15T11:21:51.490Z,991.85
2018-07-15T11:22:30.528Z,991.85
2018-07-15T11:23:30.481Z,991.91
2018-07-15T11:24:30.470Z,991.89
2018-07-15T11:25:30.467Z,991.90
2018-07-15T11:26:30.463Z,991.95
2018-07-15T11:27:51.464Z,991.93
2018-07-15T11:28:30.454Z,991.91
2018-07-15T11:29:30.452Z,991.96
2018-07-15T11:30:30.446Z,991.90
2018-07-15T11:31:30.541Z,991.88
2018-07-15T11:32:30.439Z,991.92
2018-07-15T11:33:51.444Z,991.86
2018-07-15T11:34:30.431Z,991.83
2018-07-15T11:35:30.441Z,991.81
2018-07-15T11:36:30.423Z,991.82
2018-07-15T11:37:30.419Z,991.83
2018-07-15T11:38:30.420Z,991.84
2018-07-15T11:39:51.424Z,991.83
2018-07-15T11:40:30.405Z,991.82
2018-07-15T11:41:30.402Z,991.80
2018-07-15T11:42:30.399Z,991.79
2018-07-15T11:43:30.394Z,991.76
2018-07-15T11:44:30.390Z,991.75
2018-07-15T11:45:51.397Z,991.72
2018-07-15T11:46:30.383Z,991.73
2018-07-15T11:47:30.377Z,991.77
2018-07-15T11:48:30.374Z,991.75
2018-07-15T11:49:30.370Z,991.74
2018-07-15T11:50:30.367Z,991.72
2018-07-15T11:51:51.371Z,991.71
2018-07-15T11:52:30.372Z,991.72
2018-07-15T11:53:30.354Z,991.73
2018-07-15T11:54:30.412Z,991.74
2018-07-15T11:55:30.345Z,991.77
2018-07-15T11:56:30.343Z,991.72
2018-07-15T11:57:51.343Z,991.69
2018-07-15T11:58:30.333Z,991.72
2018-07-15T11:59:30.331Z,991.71
2018-07-15T12:00:30.323Z,991.69
2018-07-15T12:01:30.355Z,991.67
2018-07-15T12:02:30.414Z,991.63
2018-07-15T12:03:51.319Z,991.61
2018-07-15T12:04:30.308Z,991.63
2018-07-15T12:05:30.302Z,991.62
2018-07-15T12:06:30.299Z,991.62
2018-07-15T12:07:30.294Z,991.58
2018-07-15T12:08:30.292Z,991.54
2018-07-15T12:09:51.297Z,991.55
2018-07-15T12:10:30.284Z,991.54
2018-07-15T12:11:30.438Z,991.53
2018-07-15T12:12:30.278Z,991.55
2018-07-15T12:13:30.272Z,991.54
2018-07-15T12:14:30.267Z,991.56
2018-07-15T12:15:51.269Z,991.55
2018-07-15T12:16:30.261Z,991.52
2018-07-15T12:17:30.256Z,991.52
2018-07-15T12:18:30.251Z,991.53
2018-07-15T12:19:30.246Z,991.53
2018-07-15T12:20:30.331Z,991.48
2018-07-15T12:21:51.249Z,991.46
2018-07-15T12:22:30.235Z,991.44
2018-07-15T12:23:30.229Z,991.47
2018-07-15T12:24:30.225Z,991.43
2018-07-15T12:25:30.222Z,991.45
2018-07-15T12:26:30.221Z,991.41
2018-07-15T12:27:51.220Z,991.39
2018-07-15T12:28:30.208Z,991.41